createdAt,value
2022-12-04T00:00:48.843Z,26.47
2022-12-04T00:05:51.802Z,25.90
2022-12-04T00:10:56.084Z,28.40
2022-12-04T00:15:59.343Z,24.83
2022-12-04T00:21:04.692Z,25.50
2022-12-04T00:26:11.543Z,26.87
2022-12-04T00:31:17.648Z,27.03
2022-12-04T00:36:25.747Z,26.83
2022-12-04T00:41:32.236Z,27.30
2022-12-04T00:46:35.165Z,27.37
2022-12-04T00:51:38.206Z,29.77
2022-12-04T00:56:42.538Z,29.50
2022-12-04T01:01:45.568Z,27.67
2022-12-04T01:06:48.569Z,30.57
2022-12-04T01:11:52.887Z,27.37
2022-12-04T01:16:55.867Z,27.63
2022-12-04T01:21:58.868Z,27.97
2022-12-04T01:27:03.366Z,26.40
2022-12-04T01:32:06.825Z,28.17
2022-12-04T01:37:09.885Z,26.83
2022-12-04T01:42:16.374Z,28.30
2022-12-04T01:47:19.317Z,28.40
2022-12-04T01:52:24.652Z,28.43
2022-12-04T01:57:33.085Z,29.53
2022-12-04T02:02:38.872Z,28.90
2022-12-04T02:07:44.238Z,29.37
2022-12-04T02:12:58.345Z,29.07
2022-12-04T02:18:07.201Z,29.80
2022-12-04T02:23:57.985Z,30.10
2022-12-04T02:29:08.258Z,30.80
2022-12-04T02:34:15.950Z,30.60
2022-12-04T02:39:23.139Z,30.57
2022-12-04T02:44:31.870Z,29.70
2022-12-04T02:49:39.989Z,30.53
2022-12-04T02:54:47.524Z,29.87
2022-12-04T02:59:54.853Z,28.37
2022-12-04T03:05:04.199Z,29.07
2022-12-04T03:10:13.239Z,27.77
2022-12-04T03:15:21.080Z,28.83
2022-12-04T03:20:25.356Z,29.73
2022-12-04T03:25:34.377Z,29.70
2022-12-04T03:30:45.324Z,30.10
2022-12-04T03:35:53.836Z,30.33
2022-12-04T03:41:04.461Z,32.23
2022-12-04T03:46:13.784Z,30.00
2022-12-04T03:51:19.488Z,28.03
2022-12-04T03:56:25.786Z,29.83
2022-12-04T04:01:36.294Z,28.40
2022-12-04T04:06:43.828Z,29.80
2022-12-04T04:11:50.963Z,30.77
2022-12-04T04:17:16.507Z,29.70
2022-12-04T04:22:39.787Z,30.60
2022-12-04T04:27:43.172Z,31.73
2022-12-04T04:32:54.260Z,29.90
2022-12-04T04:38:02.774Z,30.23
2022-12-04T04:43:10.862Z,28.50
2022-12-04T04:48:18.114Z,30.30
2022-12-04T04:53:26.840Z,29.77
2022-12-04T04:58:29.754Z,30.60
2022-12-04T05:03:34.954Z,30.53
2022-12-04T05:08:37.902Z,30.87
2022-12-04T05:13:41.122Z,33.70
2022-12-04T05:19:05.657Z,30.20
2022-12-04T05:24:09.501Z,31.37
2022-12-04T05:29:12.420Z,32.60
2022-12-04T05:34:16.680Z,29.97
2022-12-04T05:39:19.549Z,30.97
2022-12-04T05:44:22.428Z,30.67
2022-12-04T05:49:26.876Z,31.63
2022-12-04T05:54:29.801Z,32.07
2022-12-04T05:59:32.941Z,29.73
2022-12-04T06:04:38.476Z,31.47
2022-12-04T06:09:41.443Z,31.90
2022-12-04T06:14:44.353Z,32.60
2022-12-04T06:19:48.764Z,33.10
2022-12-04T06:24:51.778Z,32.13
2022-12-04T06:29:54.868Z,32.80
2022-12-04T06:34:59.226Z,30.50
2022-12-04T06:40:02.170Z,32.20
2022-12-04T06:45:06.533Z,29.70
2022-12-04T06:50:11.650Z,31.60
2022-12-04T06:55:14.543Z,29.20
2022-12-04T07:00:18.212Z,30.50
2022-12-04T07:05:22.462Z,30.60
2022-12-04T07:10:25.353Z,32.20
2022-12-04T07:15:28.336Z,30.17
2022-12-04T07:20:33.034Z,31.97
2022-12-04T07:25:40.367Z,33.00
2022-12-04T07:30:43.526Z,31.10
2022-12-04T07:35:56.468Z,30.90
2022-12-04T07:41:00.475Z,32.63
2022-12-04T07:46:07.417Z,32.50
2022-12-04T07:51:13.619Z,33.10
2022-12-04T07:56:17.706Z,31.83
2022-12-04T08:01:22.509Z,32.00
2022-12-04T08:06:29.257Z,34.03
2022-12-04T08:11:32.238Z,33.37
2022-12-04T08:16:35.259Z,36.13
2022-12-04T08:21:39.588Z,34.37
2022-12-04T08:26:42.496Z,34.07
2022-12-04T08:31:45.440Z,39.87
2022-12-04T08:36:49.684Z,58.90
2022-12-04T08:41:56.927Z,35.47
2022-12-04T08:47:00.282Z,35.47
2022-12-04T08:52:04.775Z,36.57
2022-12-04T08:57:07.978Z,39.50
2022-12-04T09:02:11.648Z,35.17
2022-12-04T09:07:15.942Z,42.60
2022-12-04T09:12:19.148Z,38.47
2022-12-04T09:17:22.039Z,37.40
2022-12-04T09:22:26.311Z,37.40
2022-12-04T09:27:29.607Z,37.47
2022-12-04T09:32:32.547Z,43.37
2022-12-04T09:37:38.589Z,35.17
2022-12-04T09:42:47.024Z,34.67
2022-12-04T09:47:53.420Z,36.17
2022-12-04T09:53:02.315Z,38.60
2022-12-04T09:58:08.635Z,40.67
2022-12-04T10:03:16.726Z,40.30
2022-12-04T10:08:23.950Z,39.93
2022-12-04T10:13:46.114Z,42.63
2022-12-04T10:18:54.897Z,42.80
2022-12-04T10:24:12.729Z,39.20
2022-12-04T10:29:21.110Z,39.73
2022-12-04T10:34:26.923Z,34.90
2022-12-04T10:39:37.201Z,39.90
2022-12-04T10:44:40.314Z,37.90
2022-12-04T10:49:43.441Z,36.00
2022-12-04T10:54:51.115Z,35.67
2022-12-04T10:59:56.260Z,34.37
2022-12-04T11:05:01.726Z,34.60
2022-12-04T11:10:08.759Z,36.03
2022-12-04T11:15:15.863Z,34.70
2022-12-04T11:20:21.098Z,34.00
2022-12-04T11:25:28.335Z,34.80
2022-12-04T11:30:35.378Z,37.23
2022-12-04T11:35:38.479Z,37.20
2022-12-04T11:40:48.106Z,35.17
2022-12-04T11:45:59.325Z,33.30
2022-12-04T11:51:11.299Z,37.13
2022-12-04T11:56:24.676Z,33.73
2022-12-04T12:01:41.484Z,36.20
2022-12-04T12:06:57.779Z,34.37
2022-12-04T12:12:07.168Z,35.83
2022-12-04T12:17:17.188Z,33.17
2022-12-04T12:22:35.513Z,33.70
2022-12-04T12:27:59.435Z,36.53
2022-12-04T12:33:11.041Z,38.87
2022-12-04T12:38:18.489Z,39.33
2022-12-04T12:43:30.293Z,37.30
2022-12-04T12:48:41.254Z,37.03
2022-12-04T12:53:48.942Z,35.23
2022-12-04T12:58:57.425Z,35.73
2022-12-04T13:04:10.790Z,30.53
2022-12-04T13:09:21.446Z,28.13
2022-12-04T13:14:25.857Z,32.07
2022-12-04T13:19:33.579Z,28.60
2022-12-04T13:24:57.810Z,34.67
2022-12-04T13:30:11.676Z,28.60
2022-12-04T13:35:25.687Z,26.53
2022-12-04T13:40:41.581Z,25.53
2022-12-04T13:45:48.092Z,25.53
2022-12-04T13:51:16.516Z,27.43
2022-12-04T13:56:27.713Z,25.37
2022-12-04T14:01:39.450Z,24.13
2022-12-04T14:06:46.450Z,25.57
2022-12-04T14:11:54.324Z,25.90
2022-12-04T14:17:00.757Z,25.07
2022-12-04T14:22:04.248Z,25.77
2022-12-04T14:27:33.709Z,24.97
2022-12-04T14:32:38.186Z,27.73
2022-12-04T14:37:50.778Z,24.73
2022-12-04T14:42:54.891Z,24.60
2022-12-04T14:48:18.847Z,23.07
2022-12-04T14:53:35.045Z,23.80
2022-12-04T14:58:39.941Z,24.00
2022-12-04T15:03:47.425Z,22.40
2022-12-04T15:08:52.124Z,28.47
2022-12-04T15:13:55.163Z,25.10
2022-12-04T15:19:00.962Z,27.30
2022-12-04T15:24:09.488Z,37.47
2022-12-04T15:29:21.267Z,32.30
2022-12-04T15:34:34.492Z,34.23
2022-12-04T15:39:38.350Z,25.27
2022-12-04T15:44:50.861Z,27.17
2022-12-04T15:49:55.824Z,24.67
2022-12-04T15:55:02.034Z,23.33
2022-12-04T16:00:07.382Z,26.83
2022-12-04T16:05:27.533Z,27.13
2022-12-04T16:10:33.691Z,23.43
2022-12-04T16:15:39.460Z,22.03
2022-12-04T16:20:43.812Z,23.00
2022-12-04T16:25:52.295Z,23.50
2022-12-04T16:30:56.511Z,34.37
2022-12-04T16:36:00.868Z,23.17
2022-12-04T16:41:05.882Z,23.47
2022-12-04T16:46:14.244Z,25.40
2022-12-04T16:51:21.555Z,26.10
2022-12-04T16:56:24.504Z,27.07
2022-12-04T17:01:36.311Z,26.17
2022-12-04T17:06:41.016Z,23.80
2022-12-04T17:11:44.397Z,23.77
2022-12-04T17:16:47.429Z,21.00
2022-12-04T17:21:53.413Z,19.50
2022-12-04T17:26:56.410Z,19.93
2022-12-04T17:31:59.411Z,18.80
2022-12-04T17:37:03.727Z,19.20
2022-12-04T17:42:06.751Z,21.27
2022-12-04T17:47:09.755Z,20.67
2022-12-04T17:52:14.115Z,19.20
2022-12-04T17:57:17.328Z,19.20
2022-12-04T18:02:20.208Z,21.07
2022-12-04T18:07:24.548Z,18.97
2022-12-04T18:12:27.548Z,21.10
2022-12-04T18:17:30.473Z,19.73
2022-12-04T18:22:34.826Z,16.90
2022-12-04T18:27:41.661Z,18.07
2022-12-04T18:32:45.257Z,16.50
2022-12-04T18:37:49.647Z,21.60
2022-12-04T18:42:52.908Z,19.13
2022-12-04T18:47:56.296Z,25.00
2022-12-04T18:53:02.030Z,22.97
2022-12-04T18:58:05.507Z,17.80
2022-12-04T19:03:08.450Z,16.63
2022-12-04T19:08:12.914Z,17.30
2022-12-04T19:13:15.888Z,18.90
2022-12-04T19:18:19.275Z,15.70
2022-12-04T19:23:23.747Z,18.57
2022-12-04T19:28:28.537Z,14.50
2022-12-04T19:33:31.582Z,17.17
2022-12-04T19:38:36.300Z,16.10
2022-12-04T19:43:40.301Z,15.60
2022-12-04T19:48:46.048Z,16.90
2022-12-04T19:53:50.711Z,16.37
2022-12-04T19:58:54.936Z,15.90
2022-12-04T20:03:58.797Z,16.97
2022-12-04T20:09:04.974Z,15.93
2022-12-04T20:14:09.045Z,16.90
2022-12-04T20:19:15.711Z,15.50
2022-12-04T20:24:20.041Z,15.83
2022-12-04T20:29:22.943Z,16.80
2022-12-04T20:34:25.840Z,15.93
2022-12-04T20:39:30.405Z,17.37
2022-12-04T20:44:33.333Z,14.80
2022-12-04T20:49:36.299Z,15.50
2022-12-04T20:54:41.788Z,14.80
2022-12-04T20:59:44.804Z,15.80
2022-12-04T21:04:47.768Z,15.30
2022-12-04T21:09:52.104Z,16.10
2022-12-04T21:15:12.257Z,16.33
2022-12-04T21:20:15.533Z,15.63
2022-12-04T21:25:19.765Z,15.20
2022-12-04T21:30:22.651Z,15.60
2022-12-04T21:35:25.569Z,16.10
2022-12-04T21:40:29.835Z,14.67
2022-12-04T21:45:32.748Z,15.33
2022-12-04T21:50:35.829Z,15.73
2022-12-04T21:55:40.155Z,14.93
2022-12-04T22:00:43.086Z,15.93
2022-12-04T22:05:46.260Z,15.77
2022-12-04T22:10:50.512Z,14.60
2022-12-04T22:15:53.539Z,13.70
2022-12-04T22:20:56.556Z,12.53
2022-12-04T22:26:07.100Z,12.07
2022-12-04T22:31:12.221Z,10.97
2022-12-04T22:36:17.076Z,13.33
2022-12-04T22:41:24.377Z,11.33
2022-12-04T22:46:27.515Z,10.17
2022-12-04T22:51:30.476Z,10.70
2022-12-04T22:56:35.208Z,10.97
2022-12-04T23:01:38.152Z,12.23
2022-12-04T23:06:41.086Z,12.27
2022-12-04T23:11:45.957Z,13.10
2022-12-04T23:16:49.811Z,14.00
2022-12-04T23:21:56.898Z,14.33
2022-12-04T23:27:01.600Z,16.10
2022-12-04T23:32:04.737Z,16.23
2022-12-04T23:37:07.748Z,16.27
2022-12-04T23:42:12.059Z,16.63
2022-12-04T23:47:15.072Z,16.37
2022-12-04T23:52:18.064Z,16.27
2022-12-04T23:57:22.403Z,16.53
